Time;durP1;ratioP1;P1;durP2;ratioP2;P2;SDS_P1;SDS_P2;PMS_P1;PMS_P2;Temp;Humidity;BMP_temperature;BMP_pressure;BME280_temperature;BME280_humidity;BME280_pressure;Samples;Min_cycle;Max_cycle;Signal;HPM_P1;HPM_P2
2022/05/16 00:02:15;;;;;;;9.65;2.80;;;;;;;18.60;52.67;101486.00;5066061;28;20028;-65
2022/05/16 00:04:43;;;;;;;6.32;2.65;;;;;;;18.59;52.19;101489.63;5067774;28;20021;-66
2022/05/16 00:07:09;;;;;;;10.45;3.45;;;;;;;18.53;52.33;101484.63;5065997;28;20035;-66
2022/05/16 00:09:34;;;;;;;6.72;2.95;;;;;;;18.48;52.91;101476.06;5067331;28;20495;-65
2022/05/16 00:12:00;;;;;;;7.85;3.20;;;;;;;18.48;52.80;101468.88;5065644;28;20044;-64
2022/05/16 00:14:25;;;;;;;8.20;2.85;;;;;;;18.43;52.75;101466.47;5067164;28;20474;-64
2022/05/16 00:16:51;;;;;;;9.75;3.25;;;;;;;18.44;52.56;101465.56;5065186;28;20263;-64
2022/05/16 00:19:16;;;;;;;9.65;3.25;;;;;;;18.37;53.09;101466.84;5064914;28;20031;-63
2022/05/16 00:21:42;;;;;;;10.52;2.97;;;;;;;18.41;53.03;101464.84;5065456;28;20035;-64
2022/05/16 00:24:07;;;;;;;7.78;3.03;;;;;;;18.36;53.55;101461.59;5067391;28;20063;-65
2022/05/16 00:26:34;;;;;;;9.82;3.22;;;;;;;18.36;52.97;101451.78;5065987;28;20054;-64
2022/05/16 00:28:59;;;;;;;9.75;3.00;;;;;;;18.31;53.33;101453.88;5066687;28;20028;-64
2022/05/16 00:31:24;;;;;;;13.77;3.10;;;;;;;18.35;52.78;101452.75;5065610;28;20033;-63
2022/05/16 00:33:50;;;;;;;9.50;2.88;;;;;;;18.35;53.28;101447.41;5050016;28;20049;-64
2022/05/16 00:36:15;;;;;;;6.50;2.42;;;;;;;18.34;53.21;101445.69;5046362;28;20112;-65
2022/05/16 00:38:40;;;;;;;10.55;3.08;;;;;;;18.26;54.00;101451.47;5059584;28;20429;-64
2022/05/16 00:41:06;;;;;;;11.90;3.25;;;;;;;18.28;53.45;101435.38;5066745;28;20525;-64
2022/05/16 00:43:55;;;;;;;9.18;3.25;;;;;;;18.25;53.98;101439.06;5065591;28;20036;-62
2022/05/16 00:46:22;;;;;;;8.93;3.00;;;;;;;18.19;53.64;101426.94;5065284;28;20073;-64
2022/05/16 00:48:47;;;;;;;9.00;3.08;;;;;;;18.16;53.92;101427.13;5065355;28;20105;-65
2022/05/16 00:51:16;;;;;;;10.55;3.17;;;;;;;18.12;54.05;101427.38;5066544;28;20028;-65
2022/05/16 00:53:42;;;;;;;11.85;3.03;;;;;;;18.11;54.24;101421.19;5053646;28;20039;-65
2022/05/16 00:56:07;;;;;;;14.13;3.85;;;;;;;18.09;54.09;101427.53;5028530;28;20112;-64
2022/05/16 00:58:34;;;;;;;7.88;2.40;;;;;;;18.03;54.81;101421.56;5052906;28;20036;-64
2022/05/16 01:01:00;;;;;;;9.70;2.80;;;;;;;18.03;54.78;101420.75;5065831;28;20787;-65
2022/05/16 01:06:09;;;;;;;11.35;3.40;;;;;;;17.94;55.18;101412.28;5065735;28;20059;-65
2022/05/16 01:08:38;;;;;;;10.52;3.10;;;;;;;17.90;55.43;101409.88;5065063;28;20459;-64
2022/05/16 01:11:09;;;;;;;9.75;3.40;;;;;;;17.83;55.63;101401.38;5063830;28;20045;-63
2022/05/16 01:13:34;;;;;;;14.52;3.70;;;;;;;17.86;55.67;101401.22;5065633;28;20033;-63
2022/05/16 01:16:02;;;;;;;11.98;3.10;;;;;;;17.83;55.86;101404.06;5064714;28;20027;-63
2022/05/16 01:18:28;;;;;;;8.82;3.13;;;;;;;17.76;56.40;101400.84;5066019;28;20028;-64
2022/05/16 01:21:30;;;;;;;10.15;3.20;;;;;;;17.74;56.24;101396.56;5062951;28;20035;-65
2022/05/16 01:24:08;;;;;;;11.45;3.00;;;;;;;17.76;56.21;101394.69;5065227;28;20036;-63
2022/05/16 01:26:34;;;;;;;11.40;2.95;;;;;;;17.71;56.47;101388.72;5066019;28;20025;-64
2022/05/16 01:29:00;;;;;;;7.25;2.50;;;;;;;17.62;57.08;101384.78;5065332;28;20028;-65
2022/05/16 01:31:25;;;;;;;11.57;2.90;;;;;;;17.60;57.25;101386.66;5062702;28;20379;-65
2022/05/16 01:33:50;;;;;;;13.32;3.10;;;;;;;17.57;57.58;101387.69;5065502;28;20564;-65
2022/05/16 01:36:16;;;;;;;10.30;2.78;;;;;;;17.60;57.60;101378.66;5062010;28;20025;-65
2022/05/16 01:38:41;;;;;;;12.68;3.55;;;;;;;17.52;57.35;101384.44;5065202;28;20717;-64
2022/05/16 01:41:19;;;;;;;10.95;2.95;;;;;;;17.40;57.84;101384.13;5063399;28;20416;-63
2022/05/16 01:43:47;;;;;;;13.93;3.28;;;;;;;17.43;58.04;101391.13;5065378;28;20102;-63
2022/05/16 01:46:19;;;;;;;12.23;3.63;;;;;;;17.38;57.97;101380.72;5061273;28;20048;-65
2022/05/16 01:48:45;;;;;;;11.85;3.22;;;;;;;17.37;58.72;101384.31;5045648;28;20193;-65
2022/05/16 01:51:11;;;;;;;11.05;3.00;;;;;;;17.41;58.13;101379.69;5044472;28;20356;-64
2022/05/16 01:53:37;;;;;;;9.45;3.42;;;;;;;17.39;58.04;101386.88;5064894;28;20086;-65
2022/05/16 01:56:03;;;;;;;11.77;3.00;;;;;;;17.38;58.51;101374.53;5064830;28;20029;-64
2022/05/16 01:58:29;;;;;;;11.85;3.42;;;;;;;17.40;58.53;101375.31;5064664;28;20443;-64
2022/05/16 02:00:54;;;;;;;10.13;3.15;;;;;;;17.42;57.96;101379.59;5063696;28;20509;-64
2022/05/16 02:03:20;;;;;;;8.48;3.00;;;;;;;17.40;58.32;101373.47;5063854;28;20024;-65
2022/05/16 02:05:46;;;;;;;14.40;2.92;;;;;;;17.38;58.77;101385.16;5064069;28;20064;-64
2022/05/16 02:08:12;;;;;;;11.35;3.60;;;;;;;17.34;58.73;101384.47;5063831;28;20124;-64
2022/05/16 02:10:38;;;;;;;8.25;3.42;;;;;;;17.31;58.85;101379.34;5065238;28;20413;-65
2022/05/16 02:13:04;;;;;;;11.00;3.70;;;;;;;17.24;59.61;101373.47;5063446;28;20105;-63
2022/05/16 02:15:31;;;;;;;10.68;2.92;;;;;;;17.26;59.42;101371.59;5064234;28;20023;-64
2022/05/16 02:17:57;;;;;;;11.45;3.08;;;;;;;17.27;60.04;101367.09;5056111;28;20056;-64
2022/05/16 02:20:22;;;;;;;11.40;3.97;;;;;;;17.25;59.75;101359.19;5044393;28;20120;-63
2022/05/16 02:25:33;;;;;;;13.60;3.45;;;;;;;17.31;58.99;101358.03;5064361;28;20043;-65
2022/05/16 02:27:59;;;;;;;9.95;3.15;;;;;;;17.25;59.64;101361.00;5064153;28;20379;-64
2022/05/16 02:30:24;;;;;;;9.20;3.83;;;;;;;17.29;59.45;101351.91;5062634;28;20102;-64
2022/05/16 02:32:49;;;;;;;11.85;3.53;;;;;;;17.25;60.14;101345.03;5063278;28;20055;-64
2022/05/16 02:35:15;;;;;;;10.93;3.47;;;;;;;17.26;60.07;101350.28;5064106;28;20487;-64
2022/05/16 02:37:41;;;;;;;8.90;2.92;;;;;;;17.22;59.73;101342.53;5062667;28;20212;-63
2022/05/16 02:40:07;;;;;;;10.30;2.80;;;;;;;17.23;59.66;101338.91;5063237;28;20040;-65
2022/05/16 02:42:33;;;;;;;10.98;3.55;;;;;;;17.24;59.98;101333.50;5063622;28;20052;-64
2022/05/16 02:44:58;;;;;;;14.52;3.50;;;;;;;17.25;60.04;101332.56;5063414;28;20028;-63
2022/05/16 02:47:24;;;;;;;7.30;2.83;;;;;;;17.23;60.25;101328.28;5063220;28;20498;-64
2022/05/16 02:49:51;;;;;;;10.38;3.13;;;;;;;17.26;59.92;101328.97;5063438;28;20089;-63
2022/05/16 02:52:16;;;;;;;8.48;3.20;;;;;;;17.21;60.23;101325.69;5063984;28;20055;-64
2022/05/16 02:54:42;;;;;;;10.18;3.38;;;;;;;17.22;60.37;101321.25;5062462;28;20320;-64
2022/05/16 02:57:08;;;;;;;11.55;3.45;;;;;;;17.15;60.51;101313.56;5063559;28;20031;-63
2022/05/16 02:59:35;;;;;;;11.43;3.28;;;;;;;17.16;60.13;101317.13;5062348;28;20062;-63
2022/05/16 03:02:04;;;;;;;11.32;3.35;;;;;;;17.16;60.34;101299.31;5064479;28;20078;-63
2022/05/16 03:04:30;;;;;;;10.05;3.67;;;;;;;17.18;60.39;101294.78;5063381;28;20127;-63
2022/05/16 03:06:56;;;;;;;16.10;4.03;;;;;;;17.10;60.77;101285.50;5064280;28;20016;-64
2022/05/16 03:09:22;;;;;;;13.65;3.70;;;;;;;17.03;60.85;101309.75;5062645;28;20444;-64
2022/05/16 03:11:48;;;;;;;12.35;3.80;;;;;;;17.07;60.72;101307.81;5064105;28;20055;-63
2022/05/16 03:14:13;;;;;;;12.63;3.85;;;;;;;17.00;60.75;101293.06;5063062;28;20021;-65
2022/05/16 03:16:39;;;;;;;14.98;3.78;;;;;;;17.09;60.68;101305.91;5064640;28;20024;-63
2022/05/16 03:19:05;;;;;;;9.15;3.55;;;;;;;17.07;60.67;101307.81;5066635;28;20027;-64
2022/05/16 03:21:30;;;;;;;11.48;3.97;;;;;;;17.15;60.13;101313.56;5067353;28;20033;-65
2022/05/16 03:23:57;;;;;;;11.00;3.47;;;;;;;17.10;59.78;101312.94;5066549;28;20115;-64
2022/05/16 03:26:22;;;;;;;14.85;4.00;;;;;;;17.18;59.69;101294.78;5067317;28;20024;-64
2022/05/16 03:28:47;;;;;;;9.00;3.58;;;;;;;17.24;59.50;101295.38;5067153;28;20036;-64
2022/05/16 03:31:12;;;;;;;13.32;3.90;;;;;;;17.23;59.26;101291.00;5066881;28;20043;-63
2022/05/16 03:33:38;;;;;;;12.63;3.92;;;;;;;17.17;59.90;101298.38;5067310;28;20032;-64
2022/05/16 03:36:04;;;;;;;13.63;4.13;;;;;;;17.18;59.69;101304.56;5066322;28;20028;-64
2022/05/16 03:41:13;;;;;;;12.32;4.00;;;;;;;17.14;59.13;101314.53;5065944;28;20039;-66
2022/05/16 03:43:40;;;;;;;9.63;3.33;;;;;;;17.24;58.76;101306.00;5065631;28;20123;-65
2022/05/16 03:46:06;;;;;;;12.23;3.55;;;;;;;17.26;58.50;101306.81;5067051;28;20409;-63
2022/05/16 03:48:32;;;;;;;10.30;4.13;;;;;;;17.21;58.75;101304.38;5067946;28;20039;-62
2022/05/16 03:50:58;;;;;;;7.78;3.30;;;;;;;17.22;58.64;101303.44;5068209;28;20058;-65
2022/05/16 03:53:23;;;;;;;17.38;4.15;;;;;;;17.22;58.75;101311.44;5066232;28;20376;-64
2022/05/16 03:55:48;;;;;;;10.57;3.33;;;;;;;17.17;59.00;101305.50;5067198;28;20078;-66
2022/05/16 03:58:14;;;;;;;16.63;4.28;;;;;;;17.19;58.92;101303.63;5066244;28;20447;-64
2022/05/16 04:00:40;;;;;;;9.63;3.40;;;;;;;17.13;58.91;101296.81;5066681;28;20025;-65
2022/05/16 04:03:05;;;;;;;10.70;3.58;;;;;;;17.09;59.13;101303.25;5066883;28;20058;-65
2022/05/16 04:05:31;;;;;;;12.18;4.18;;;;;;;17.12;58.90;101304.88;5066465;28;20439;-63
2022/05/16 04:07:56;;;;;;;9.23;3.42;;;;;;;17.08;59.34;101304.22;5066859;28;20713;-64
2022/05/16 04:10:22;;;;;;;9.10;3.85;;;;;;;17.07;59.63;101314.94;5063200;28;20032;-63
2022/05/16 04:12:48;;;;;;;13.07;3.63;;;;;;;17.10;59.50;101307.63;5066403;28;20059;-63
2022/05/16 04:15:13;;;;;;;13.85;4.53;;;;;;;17.15;59.66;101313.56;5066421;28;20073;-64
2022/05/16 04:17:39;;;;;;;8.63;3.15;;;;;;;17.27;59.13;101309.38;5066314;28;20024;-63
2022/05/16 04:20:06;;;;;;;8.80;3.75;;;;;;;17.34;58.92;101309.06;5066562;28;20024;-64
2022/05/16 04:22:31;;;;;;;10.15;4.00;;;;;;;17.38;59.31;101295.47;5067052;28;20548;-64
2022/05/16 04:24:57;;;;;;;9.90;4.15;;;;;;;17.32;59.17;101305.59;5066678;28;20230;-63
2022/05/16 04:27:22;;;;;;;11.35;4.53;;;;;;;17.41;59.01;101303.31;5066034;28;20028;-64
2022/05/16 04:29:48;;;;;;;11.80;3.47;;;;;;;17.56;58.56;101303.38;5065022;28;20115;-63
2022/05/16 04:32:13;;;;;;;13.13;3.53;;;;;;;17.73;57.61;101301.56;5065822;28;20382;-63
2022/05/16 04:34:38;;;;;;;13.75;4.22;;;;;;;17.75;57.75;101294.34;5066567;28;20043;-64
2022/05/16 04:37:04;;;;;;;12.63;4.00;;;;;;;17.80;57.28;101295.81;5066184;28;20383;-64
2022/05/16 04:39:29;;;;;;;8.43;4.00;;;;;;;17.83;57.38;101291.22;5066795;28;20051;-64
2022/05/16 04:44:38;;;;;;;12.82;5.03;;;;;;;18.08;57.19;101296.00;5065035;28;20098;-64
2022/05/16 04:47:05;;;;;;;12.20;4.60;;;;;;;18.05;57.23;101289.03;5063851;28;20433;-62
2022/05/16 04:49:30;;;;;;;13.52;4.28;;;;;;;18.13;57.09;101283.31;5066193;28;20036;-64
2022/05/16 04:51:56;;;;;;;11.07;4.28;;;;;;;18.30;57.33;101294.75;5065398;28;20031;-64
2022/05/16 04:54:21;;;;;;;10.80;4.25;;;;;;;18.36;56.60;101297.06;5063245;28;20115;-64
2022/05/16 04:56:47;;;;;;;12.48;4.45;;;;;;;18.54;56.60;101289.75;5064341;28;20312;-63
2022/05/16 04:59:13;;;;;;;10.02;4.15;;;;;;;18.60;56.31;101293.84;5063826;28;20085;-64
2022/05/16 05:01:38;;;;;;;13.70;4.32;;;;;;;18.63;56.56;101312.34;5047357;28;20032;-63
2022/05/16 05:04:04;;;;;;;11.15;4.38;;;;;;;18.91;54.98;101309.81;5065960;28;20131;-66
2022/05/16 05:06:29;;;;;;;15.65;3.78;;;;;;;19.11;54.19;101313.09;5065024;28;20067;-64
2022/05/16 05:08:54;;;;;;;11.57;4.45;;;;;;;19.10;54.41;101303.34;5065242;28;20036;-64
2022/05/16 05:16:48;;;;;;;9.07;4.07;;;;;;;19.39;54.36;101305.97;5065353;28;20071;-63
2022/05/16 05:19:13;;;;;;;10.60;4.60;;;;;;;19.35;53.91;101304.47;5064861;28;20072;-63
2022/05/16 05:21:38;;;;;;;12.82;3.90;;;;;;;19.37;54.33;101300.75;5065439;28;20099;-64
2022/05/16 05:24:04;;;;;;;14.13;4.72;;;;;;;19.35;54.65;101307.16;5063506;28;20052;-66
2022/05/16 05:26:29;;;;;;;9.20;4.22;;;;;;;19.44;54.05;101299.38;5064080;28;20111;-62
2022/05/16 05:28:55;;;;;;;9.93;3.88;;;;;;;19.48;53.68;101302.72;5063980;28;20093;-64
2022/05/16 05:31:25;;;;;;;12.95;4.32;;;;;;;19.53;53.48;101297.94;5065391;28;20032;-63
2022/05/16 05:33:50;;;;;;;12.35;4.30;;;;;;;19.26;54.92;101298.75;5064994;28;20028;-63
2022/05/16 05:36:15;;;;;;;10.48;4.55;;;;;;;19.21;55.71;101303.53;5065140;28;20025;-64
2022/05/16 05:38:41;;;;;;;10.23;3.85;;;;;;;19.29;55.05;101305.69;5064436;28;20139;-63
2022/05/16 05:41:07;;;;;;;11.52;4.28;;;;;;;19.42;54.99;101317.31;5063865;28;20127;-64
2022/05/16 05:43:33;;;;;;;10.35;4.72;;;;;;;19.36;55.54;101320.41;5063966;28;20102;-65
2022/05/16 05:45:58;;;;;;;15.32;4.25;;;;;;;19.37;55.64;101330.13;5064693;28;20048;-63
2022/05/16 05:48:24;;;;;;;14.88;4.55;;;;;;;19.37;55.00;101329.25;5063615;28;20116;-66
2022/05/16 05:50:49;;;;;;;16.17;4.78;;;;;;;19.38;55.11;101339.84;5065068;28;20066;-64
2022/05/16 05:53:15;;;;;;;9.98;4.45;;;;;;;19.39;55.74;101338.88;5064409;28;20159;-63
2022/05/16 05:55:40;;;;;;;8.65;4.43;;;;;;;19.52;54.90;101344.31;5065078;28;20039;-64
2022/05/16 05:58:06;;;;;;;12.85;4.68;;;;;;;19.47;55.56;101332.22;5062985;28;20017;-65
2022/05/16 06:00:31;;;;;;;13.07;4.97;;;;;;;19.34;55.48;101345.47;5064901;28;20129;-63
2022/05/16 06:02:56;;;;;;;12.75;5.32;;;;;;;19.32;55.70;101343.78;5064107;28;20051;-63
2022/05/16 06:05:22;;;;;;;10.88;4.85;;;;;;;19.31;56.45;101346.53;5064858;28;20051;-64
2022/05/16 06:07:48;;;;;;;13.82;5.18;;;;;;;19.31;57.07;101359.91;5064105;28;20300;-63
2022/05/16 06:10:13;;;;;;;18.10;5.38;;;;;;;19.27;56.63;101355.72;5044455;28;20041;-63
2022/05/16 06:12:39;;;;;;;12.50;5.22;;;;;;;19.26;55.91;101357.50;5043371;28;20106;-64
2022/05/16 06:15:06;;;;;;;10.93;4.90;;;;;;;19.27;56.70;101361.06;5060792;28;20024;-64
2022/05/16 06:17:31;;;;;;;9.68;5.03;;;;;;;19.21;57.44;101348.06;5063630;28;20090;-63
2022/05/16 06:19:57;;;;;;;11.40;4.68;;;;;;;19.31;56.75;101354.56;5063991;28;20681;-64
2022/05/16 06:22:23;;;;;;;13.68;4.70;;;;;;;19.31;57.06;101359.91;5063906;28;20028;-64
2022/05/16 06:27:32;;;;;;;15.23;5.55;;;;;;;19.24;58.20;101359.44;5064081;28;20094;-64
2022/05/16 06:29:58;;;;;;;14.25;5.28;;;;;;;19.32;56.94;101358.94;5063199;28;20534;-65
2022/05/16 06:32:24;;;;;;;18.45;5.80;;;;;;;19.27;58.23;101371.75;5079558;28;20053;-65
2022/05/16 06:34:51;;;;;;;14.93;5.70;;;;;;;19.38;57.74;101365.72;5063583;28;20028;-64
2022/05/16 06:37:18;;;;;;;19.98;5.68;;;;;;;19.55;57.72;101359.31;5064273;28;20455;-64
2022/05/16 06:39:43;;;;;;;14.48;5.40;;;;;;;19.70;57.13;101362.81;5063118;28;20037;-67
2022/05/16 06:42:08;;;;;;;19.67;6.32;;;;;;;19.76;57.06;101361.53;5063955;28;20021;-64
2022/05/16 06:44:34;;;;;;;16.02;6.35;;;;;;;19.83;56.50;101360.19;5062457;28;20032;-63
2022/05/16 06:46:59;;;;;;;18.08;5.95;;;;;;;19.86;57.50;101362.66;5064498;28;20212;-65
2022/05/16 06:49:24;;;;;;;10.02;4.68;;;;;;;20.13;56.15;101360.97;5061378;28;20356;-65
2022/05/16 06:51:50;;;;;;;15.15;4.85;;;;;;;20.28;56.30;101369.78;5064056;28;20024;-63
2022/05/16 06:54:15;;;;;;;17.27;4.82;;;;;;;20.24;56.06;101366.47;5062247;28;20108;-63
2022/05/16 06:56:40;;;;;;;11.10;5.22;;;;;;;20.28;55.11;101359.94;5062598;28;20021;-63
2022/05/16 06:59:06;;;;;;;12.68;5.70;;;;;;;20.29;56.52;101361.66;5062568;28;20032;-63
2022/05/16 07:01:31;;;;;;;11.07;5.55;;;;;;;20.45;55.24;101368.66;5064875;28;20367;-64
2022/05/16 07:03:57;;;;;;;21.98;6.65;;;;;;;20.41;56.30;101365.31;5064859;28;20094;-65
2022/05/16 07:06:22;;;;;;;10.85;5.30;;;;;;;20.48;55.78;101371.13;5064381;28;20036;-64
2022/05/16 07:08:47;;;;;;;12.50;5.63;;;;;;;20.71;54.73;101368.72;5064878;28;20025;-65
2022/05/16 07:11:13;;;;;;;16.25;5.50;;;;;;;20.83;54.04;101367.84;5063937;28;20427;-67
2022/05/16 07:13:38;;;;;;;9.00;5.00;;;;;;;21.08;54.07;101366.16;5063550;28;20102;-65
2022/05/16 07:16:04;;;;;;;16.20;5.05;;;;;;;21.34;53.08;101359.91;5079829;28;20031;-62
2022/05/16 07:18:29;;;;;;;13.65;5.00;;;;;;;21.85;52.32;101347.34;5063359;28;20067;-64
2022/05/16 07:20:55;;;;;;;16.45;5.68;;;;;;;22.07;51.26;101356.50;5063876;28;20487;-65
2022/05/16 07:23:21;;;;;;;9.88;4.72;;;;;;;22.31;50.67;101355.59;5061719;28;20526;-64
2022/05/16 07:28:31;;;;;;;16.52;5.18;;;;;;;22.54;50.29;101352.97;5063397;28;20253;-65
2022/05/16 07:30:56;;;;;;;16.67;4.93;;;;;;;22.87;49.72;101359.41;5062769;28;20129;-65
2022/05/16 07:33:21;;;;;;;12.23;4.65;;;;;;;22.94;49.49;101363.31;5063200;28;20047;-64
2022/05/16 07:35:55;;;;;;;10.13;4.43;;;;;;;23.07;50.03;101381.16;5050502;28;20396;-64
2022/05/16 07:38:21;;;;;;;13.15;4.90;;;;;;;23.23;49.06;101376.28;5044186;28;20041;-64
2022/05/16 07:40:47;;;;;;;12.07;3.90;;;;;;;23.15;49.43;101381.41;5054528;28;20103;-65
2022/05/16 07:43:12;;;;;;;12.48;4.97;;;;;;;23.02;50.58;101399.50;5062174;28;20419;-64
2022/05/16 07:45:37;;;;;;;13.00;4.55;;;;;;;23.31;50.64;101393.63;5062190;28;20047;-64
2022/05/16 07:48:03;;;;;;;10.63;4.63;;;;;;;23.45;49.73;101390.72;5063109;28;20054;-63
2022/05/16 07:50:29;;;;;;;12.23;5.15;;;;;;;23.38;50.01;101397.56;5062598;28;20032;-63
2022/05/16 07:52:56;;;;;;;16.35;5.07;;;;;;;23.22;51.75;101396.09;5063509;28;20383;-64
2022/05/16 07:55:23;;;;;;;12.20;5.10;;;;;;;23.43;50.07;101400.75;5056963;28;20029;-65
2022/05/16 07:57:48;;;;;;;17.98;5.53;;;;;;;23.30;51.96;101403.53;5042266;28;20236;-64
2022/05/16 08:00:14;;;;;;;11.50;4.45;;;;;;;23.44;50.44;101389.03;5043215;28;20117;-63
2022/05/16 08:02:40;;;;;;;10.75;4.65;;;;;;;23.45;50.68;101406.84;5062767;28;20260;-64
2022/05/16 08:05:07;;;;;;;7.57;4.20;;;;;;;23.49;50.10;101404.78;5065411;28;20016;-63
2022/05/16 08:07:33;;;;;;;11.30;4.57;;;;;;;23.35;50.61;101403.16;5066775;28;20043;-64
2022/05/16 08:12:42;;;;;;;13.82;3.45;;;;;;;23.43;49.77;101402.59;5065526;28;20125;-66
2022/05/16 08:15:08;;;;;;;10.20;3.40;;;;;;;23.27;51.03;101405.63;5066701;28;20443;-65
2022/05/16 08:17:33;;;;;;;6.72;3.10;;;;;;;23.47;50.39;101402.22;5066086;28;20025;-65
2022/05/16 08:19:59;;;;;;;10.05;3.38;;;;;;;23.62;50.97;101406.50;5048925;28;20163;-66
2022/05/16 08:22:32;;;;;;;6.80;3.00;;;;;;;23.91;49.05;101406.81;5046233;28;20055;-66
2022/05/16 08:24:58;;;;;;;8.48;3.20;;;;;;;24.13;48.85;101413.13;5062840;28;20111;-66
2022/05/16 08:27:24;;;;;;;6.20;2.78;;;;;;;24.39;48.24;101410.09;5066059;28;20096;-65
2022/05/16 08:29:50;;;;;;;11.63;3.78;;;;;;;24.61;47.96;101405.56;5065369;28;20509;-64
2022/05/16 08:32:16;;;;;;;8.68;3.00;;;;;;;24.71;47.54;101409.19;5065954;28;20024;-67
2022/05/16 08:34:42;;;;;;;10.48;2.80;;;;;;;24.86;47.43;101407.00;5066452;28;20032;-68
2022/05/16 08:40:04;;;;;;;6.53;3.10;;;;;;;24.76;48.25;101407.91;5065308;28;20054;-64
2022/05/16 08:42:53;;;;;;;11.13;2.53;;;;;;;24.83;47.39;101406.44;5063897;28;20041;-64
2022/05/16 08:45:27;;;;;;;5.03;2.85;;;;;;;24.72;48.21;101410.88;5065149;28;20047;-65
2022/05/16 08:47:55;;;;;;;8.35;2.60;;;;;;;24.75;47.61;101412.47;5066745;28;20150;-64
2022/05/16 08:50:41;;;;;;;13.05;2.80;;;;;;;24.74;48.20;101410.75;5061342;28;20043;-64
2022/05/16 08:53:12;;;;;;;8.70;2.45;;;;;;;24.83;47.73;101406.44;5055510;28;20039;-64
2022/05/16 08:55:40;;;;;;;8.50;2.40;;;;;;;24.91;47.64;101403.09;5058254;28;20131;-62
2022/05/16 08:58:10;;;;;;;8.68;2.53;;;;;;;24.99;47.71;101396.03;5065344;28;20023;-64
2022/05/16 09:00:49;;;;;;;5.70;2.08;;;;;;;25.18;47.15;101399.84;5057793;28;20375;-65
2022/05/16 09:03:22;;;;;;;9.93;2.40;;;;;;;25.21;46.87;101398.69;5059388;28;20483;-64
2022/05/16 09:05:51;;;;;;;9.18;2.60;;;;;;;25.29;46.09;101393.50;5051223;28;20096;-64
2022/05/16 09:08:39;;;;;;;9.15;2.22;;;;;;;25.42;45.79;101400.47;5059379;28;20372;-64
2022/05/16 09:11:15;;;;;;;5.35;2.10;;;;;;;25.58;45.25;101395.41;5052390;28;20020;-65
2022/05/16 09:13:51;;;;;;;6.47;2.47;;;;;;;25.67;45.48;101393.78;5065449;28;20049;-62
2022/05/16 09:16:37;;;;;;;10.13;2.35;;;;;;;25.88;45.43;101395.50;5065475;28;20473;-64
2022/05/16 09:19:22;;;;;;;8.65;2.03;;;;;;;25.98;45.12;101420.66;5066100;28;20032;-63
2022/05/16 09:22:11;;;;;;;8.85;2.50;;;;;;;26.15;44.78;101428.25;5044878;28;20078;-63
2022/05/16 09:25:03;;;;;;;6.63;2.50;;;;;;;26.22;44.29;101432.91;5053868;28;20055;-64
2022/05/16 09:30:19;;;;;;;10.15;2.35;;;;;;;26.49;43.71;101442.19;5049979;28;20039;-60
2022/05/16 09:32:49;;;;;;;8.80;2.90;;;;;;;26.51;43.42;101446.63;5065601;28;20036;-60
2022/05/16 09:36:00;;;;;;;9.63;2.92;;;;;;;26.53;44.57;101452.72;5065059;28;20028;-58
2022/05/16 09:38:25;;;;;;;8.00;2.28;;;;;;;26.47;44.54;101470.34;5049727;28;20043;-64
2022/05/16 09:40:59;;;;;;;18.40;2.72;;;;;;;26.18;44.87;101474.69;5063144;28;20422;-61
2022/05/16 09:43:30;;;;;;;8.93;2.55;;;;;;;26.20;44.40;101477.25;5065200;28;20034;-67
2022/05/16 09:46:02;;;;;;;8.80;2.50;;;;;;;26.25;44.07;101478.53;5063420;28;20041;-60
2022/05/16 09:48:28;;;;;;;7.07;2.20;;;;;;;26.45;44.02;101499.34;5078449;28;20353;-62
2022/05/16 09:50:59;;;;;;;9.75;2.78;;;;;;;26.62;43.55;101484.28;5062277;28;20471;-63
2022/05/16 09:53:30;;;;;;;10.65;2.92;;;;;;;26.70;43.49;101507.91;5065492;28;20032;-61
2022/05/16 09:56:02;;;;;;;8.82;3.10;;;;;;;26.47;44.59;101497.38;5065023;28;20036;-62
2022/05/16 09:58:49;;;;;;;6.03;2.22;;;;;;;26.43;45.02;101504.06;5065002;28;20064;-62
2022/05/16 10:01:32;;;;;;;9.55;2.72;;;;;;;26.32;45.13;101510.44;5062973;28;20037;-61
2022/05/16 10:04:12;;;;;;;6.03;2.80;;;;;;;26.12;45.78;101526.56;5064407;28;20024;-61
2022/05/16 10:06:44;;;;;;;7.78;3.05;;;;;;;25.74;46.09;101524.44;5064381;28;20039;-61
2022/05/16 10:09:14;;;;;;;8.63;3.05;;;;;;;25.58;46.66;101524.94;5065086;28;20028;-60
2022/05/16 10:11:41;;;;;;;10.82;2.95;;;;;;;25.22;47.97;101543.31;5064257;28;20510;-61
2022/05/16 10:14:06;;;;;;;8.55;2.92;;;;;;;24.96;48.02;101544.53;5063084;28;20025;-59
2022/05/16 10:16:32;;;;;;;10.48;3.35;;;;;;;24.85;48.45;101542.75;5063751;28;20503;-58
2022/05/16 10:19:03;;;;;;;7.45;2.97;;;;;;;24.72;50.17;101561.75;5065877;28;20020;-60
2022/05/16 10:21:35;;;;;;;7.03;2.58;;;;;;;24.73;53.11;101576.97;5056144;28;20467;-60
2022/05/16 10:24:02;;;;;;;7.22;3.08;;;;;;;24.63;54.45;101583.25;5057265;28;20021;-61
2022/05/16 10:26:32;;;;;;;9.40;2.85;;;;;;;24.58;54.43;101578.22;5057162;28;20028;-62
2022/05/16 10:29:00;;;;;;;5.28;2.55;;;;;;;24.60;54.13;101581.66;5064704;28;20539;-61
2022/05/16 10:34:37;;;;;;;6.90;2.58;;;;;;;24.78;55.12;101584.69;5063968;28;20090;-60
2022/05/16 10:37:04;;;;;;;11.65;3.10;;;;;;;24.90;55.07;101595.44;5062628;28;20391;-61
2022/05/16 10:39:30;;;;;;;5.00;2.70;;;;;;;24.79;55.84;101607.06;5064210;28;20050;-59
2022/05/16 10:42:04;;;;;;;6.25;2.72;;;;;;;24.86;54.42;101619.03;5059284;28;20039;-60
2022/05/16 10:44:53;;;;;;;7.90;3.03;;;;;;;24.89;54.60;101616.13;5043666;28;20078;-62
2022/05/16 10:47:37;;;;;;;7.35;3.05;;;;;;;24.60;55.81;101620.22;5031520;28;20040;-60
2022/05/16 10:50:10;;;;;;;9.13;3.63;;;;;;;24.76;55.77;101620.78;5064562;28;20280;-61
2022/05/16 10:52:43;;;;;;;7.05;3.70;;;;;;;24.74;56.63;101629.00;5063319;28;20020;-62
2022/05/16 10:55:09;;;;;;;7.32;4.75;;;;;;;24.74;55.88;101646.03;5064995;28;20487;-61
2022/05/16 10:57:55;;;;;;;14.63;6.18;;;;;;;24.52;57.16;101652.31;5064481;28;20028;-61
2022/05/16 11:00:47;;;;;;;13.80;6.05;;;;;;;24.55;57.41;101643.13;5063727;28;20051;-60
2022/05/16 11:03:12;;;;;;;12.30;5.95;;;;;;;24.23;57.74;101653.69;5052705;28;20063;-63
2022/05/16 11:06:00;;;;;;;13.57;7.37;;;;;;;24.19;57.72;101652.22;5064655;28;20491;-59
2022/05/16 11:08:29;;;;;;;14.05;7.97;;;;;;;23.84;58.86;101661.22;5062279;28;20815;-61
2022/05/16 11:10:59;;;;;;;15.30;8.25;;;;;;;23.75;59.05;101659.25;5064782;28;20055;-61
2022/05/16 11:13:34;;;;;;;16.90;8.98;;;;;;;23.65;59.50;101657.25;5061783;28;20517;-62
2022/05/16 11:16:11;;;;;;;16.40;9.48;;;;;;;23.26;61.24;101659.31;5063331;28;20039;-61
2022/05/16 11:18:58;;;;;;;19.85;10.98;;;;;;;23.30;61.29;101661.63;5060632;28;20040;-62
2022/05/16 11:21:42;;;;;;;19.23;12.60;;;;;;;23.04;61.82;101668.97;5061632;28;20103;-62
2022/05/16 11:24:17;;;;;;;22.58;15.13;;;;;;;22.58;63.60;101672.22;5064432;28;20090;-62
2022/05/16 11:26:50;;;;;;;22.30;15.65;;;;;;;22.31;64.77;101678.56;5063629;28;20036;-63
2022/05/16 11:29:24;;;;;;;33.85;18.73;;;;;;;21.98;65.36;101673.75;5063543;28;20107;-62
2022/05/16 11:31:54;;;;;;;33.78;19.05;;;;;;;21.75;66.22;101685.09;5063099;28;20552;-62
2022/05/16 11:34:45;;;;;;;31.30;17.85;;;;;;;21.24;67.50;101691.16;5062510;28;20016;-61
2022/05/16 11:37:54;;;;;;;23.80;11.32;;;;;;;21.12;67.27;101682.97;5056081;28;20441;-61
2022/05/16 11:40:32;;;;;;;13.15;7.70;;;;;;;21.00;66.69;101684.63;5048683;28;20236;-63
2022/05/16 11:43:25;;;;;;;13.45;7.18;;;;;;;21.08;66.21;101686.81;5049277;28;20047;-63
2022/05/16 11:46:24;;;;;;;13.82;6.38;;;;;;;20.88;67.54;101709.47;5064445;28;20114;-61
2022/05/16 11:49:11;;;;;;;16.08;6.75;;;;;;;20.37;69.54;101710.84;5066622;28;20107;-62
2022/05/16 11:52:14;;;;;;;14.25;6.78;;;;;;;20.14;70.51;101708.66;5050724;28;20052;-62
2022/05/16 11:54:49;;;;;;;20.10;6.82;;;;;;;19.83;72.34;101713.13;5066982;28;20434;-60
2022/05/16 12:03:09;;;;;;;17.52;8.52;;;;;;;19.31;74.08;101726.81;5068009;28;20491;-61
2022/05/16 12:05:39;;;;;;;23.13;9.68;;;;;;;19.28;74.08;101734.13;5043945;28;20360;-60
2022/05/16 12:08:23;;;;;;;19.90;10.23;;;;;;;19.19;74.53;101730.16;5059978;28;20017;-60